Last 30 days

Temperature [°C]

Date Min. Avg. Max.
2017-08-25 11,40 15,29 21,00
2017-08-26 6,90 19,01 30,20
2017-08-27 13,00 18,59 26,10
2017-08-28 8,60 17,14 26,90
2017-08-29 9,50 18,80 29,20
2017-08-30 11,90 22,00 32,60
2017-08-31 13,70 21,08 32,20
2017-09-01 11,60 15,37 22,20
2017-09-02 11,40 15,51 21,90
2017-09-03 9,40 13,38 20,20
2017-09-04 8,30 14,73 22,30
2017-09-05 12,60 15,75 21,00
2017-09-06 11,30 16,35 25,60
2017-09-07 12,20 13,66 16,40
2017-09-08 8,20 12,94 19,30
2017-09-09 12,00 15,42 21,20
2017-09-10 10,50 15,50 23,90
2017-09-11 9,00 13,90 23,20
2017-09-21 9,50 11,16 14,80
2017-09-22 7,90 10,62 17,10

Humidity [%]

Date Min. Avg. Max.
2017-08-25 65 95 100
2017-08-26 34 76 100
2017-08-27 52 89 100
2017-08-28 40 87 100
2017-08-29 36 77 100
2017-08-30 38 75 100
2017-08-31 48 92 100
2017-09-01 50 90 100
2017-09-02 54 87 100
2017-09-03 83 99 100
2017-09-04 48 83 100
2017-09-05 100 100 100
2017-09-06 56 97 100
2017-09-07 100 100 100
2017-09-08 96 100 100
2017-09-09 82 99 100
2017-09-10 55 91 100
2017-09-11 54 94 100
2017-09-21 100 100 100
2017-09-22 100 100 100

Pressure [hPa]

Date Min. Avg. Max.
2017-08-25 1 019 1 019 1 020
2017-08-26 1 016 1 019 1 020
2017-08-27 1 013 1 015 1 019
2017-08-28 1 020 1 021 1 022
2017-08-29 1 015 1 019 1 022
2017-08-30 1 009 1 013 1 015
2017-08-31 1 008 1 011 1 019
2017-09-01 1 019 1 021 1 022
2017-09-02 1 018 1 019 1 020
2017-09-03 1 015 1 017 1 019
2017-09-04 1 013 1 015 1 017
2017-09-05 1 017 1 018 1 019
2017-09-06 1 007 1 010 1 017
2017-09-07 1 008 1 009 1 011
2017-09-08 1 003 1 007 1 011
2017-09-09 999 1 000 1 003
2017-09-10 1 002 1 005 1 006
2017-09-11 1 000 1 002 1 005
2017-09-12 1 001 1 004 1 008
2017-09-13 995 1 001 1 008
2017-09-14 997 997 997
2017-09-15 1 010 1 011 1 012
2017-09-16 1 012 1 013 1 015
2017-09-17 1 013 1 014 1 016
2017-09-18 1 013 1 015 1 017
2017-09-19 1 016 1 017 1 018
2017-09-20 1 018 1 019 1 021
2017-09-21 1 021 1 022 1 022
2017-09-22 1 021 1 022 1 024
2017-09-23 1 022 1 024 1 025
2017-09-24 1 022 1 024 1 026

Wind speed [m/s]

Date Min. Avg. Max.
2017-08-25 0,5 1,5 3,1
2017-08-26 1,0 1,8 3,1
2017-08-27 1,5 4,0 8,7
2017-08-28 1,0 2,6 5,1
2017-08-29 1,0 3,8 7,2
2017-08-30 2,6 4,5 7,2
2017-08-31 1,5 4,5 9,3
2017-09-01 1,0 2,8 5,1
2017-09-02 1,0 3,4 7,2
2017-09-03 0,5 3,2 5,7
2017-09-04 1,5 5,2 9,3
2017-09-05 1,0 4,9 7,7
2017-09-06 1,0 3,2 6,7
2017-09-07 2,6 5,7 9,9
2017-09-08 1,5 4,3 9,3
2017-09-09 2,6 4,5 7,2
2017-09-10 1,0 2,9 5,7
2017-09-11 1,5 4,6 7,7
2017-09-12 1,5 3,2 6,2
2017-09-13 1,5 5,2 8,7
2017-09-14 6,2 6,2 6,2
2017-09-15 1,5 4,6 8,2
2017-09-16 0,5 2,4 3,6
2017-09-17 0,5 1,7 3,6
2017-09-18 0,5 2,6 5,7
2017-09-19 0,5 2,0 5,1
2017-09-20 1,0 2,8 6,2
2017-09-21 1,0 2,9 6,2
2017-09-22 0,5 3,2 6,2
2017-09-23 1,0 3,1 6,2
2017-09-24 1,0 2,5 4,6

Temperature Internal [°C]

Date Min. Avg. Max.
2017-08-25 24,7 24,9 25,0
2017-08-26 22,9 24,4 25,6
2017-08-27 23,8 24,6 25,3
2017-08-28 22,3 23,9 24,9
2017-08-29 22,7 24,1 25,5
2017-08-30 24,0 25,2 26,7
2017-08-31 24,7 25,5 26,4
2017-09-01 22,2 23,2 24,4
2017-09-02 22,2 23,2 23,9
2017-09-03 22,4 23,0 23,5
2017-09-04 22,2 22,9 23,3
2017-09-05 21,6 22,6 23,2
2017-09-06 22,6 23,3 23,9
2017-09-07 22,3 22,8 23,4
2017-09-08 22,2 22,5 22,9
2017-09-09 21,8 22,3 22,9
2017-09-10 22,1 22,7 23,4
2017-09-11 21,6 22,3 22,9
2017-09-12 21,2 22,1 22,9
2017-09-13 20,8 21,4 22,1
2017-09-14 20,7 20,7 20,7
2017-09-15 20,8 21,5 22,0
2017-09-16 20,7 21,4 22,7
2017-09-17 20,9 21,8 22,5
2017-09-18 20,7 21,5 22,3
2017-09-19 20,2 21,3 22,3
2017-09-20 21,1 21,8 22,3
2017-09-21 21,6 22,0 22,5
2017-09-22 21,1 22,1 22,6
2017-09-23 21,5 21,8 22,2
2017-09-24 21,7 22,4 23,2

Light level []

Date Min. Avg. Max.
2017-08-25 0 200 822
2017-08-26 0 485 965
2017-08-27 0 626 961
2017-08-28 0 539 959
2017-08-29 0 476 861
2017-08-30 0 493 935
2017-08-31 0 465 966
2017-09-01 0 525 968
2017-09-02 0 558 948
2017-09-03 0 560 963
2017-09-04 0 492 965
2017-09-05 0 478 972
2017-09-06 0 552 973
2017-09-07 0 471 967
2017-09-08 0 470 963
2017-09-09 0 477 965
2017-09-10 0 519 958
2017-09-11 0 452 966
2017-09-12 0 461 961
2017-09-13 0 457 954
2017-09-14 0 0 0
2017-09-15 0 594 946
2017-09-16 0 184 819
2017-09-17 0 356 944
2017-09-18 0 550 954
2017-09-19 0 463 944
2017-09-20 0 479 957
2017-09-21 0 497 971
2017-09-22 0 591 962
2017-09-23 0 454 962
2017-09-24 0 492 965